Blythe Airport
KBLH : now visible

Aeroporto :











RITROVATECI SU...

 
LOGIN :

Iscrizione | Disclaimer

   EN    FR    IT 

 









Sommario :    VFR   VFR Marginale   IFR   IFR Intensivo   IFR Molto Intensivo
Visibilità : 
Base nubi : 
>= 8 km
>= 3000ft
5 / 8 km
1000 / 3000 ft
1500m / 5 km
500 / 1000 ft
800 / 1500m
200 / 500 ft
< 800m
< 200 ft
Simboli :   Temporali  Nebbia  Neve Forte  Precipitazioni Forti  Vento > 20 kt






- Altitudine del aeroporto : 399 ft


KBLH - Blythe

ULTIMO METAR :
  • 250852Z AUTO 21003KT 10SM CLR 31/09 A2977 RMK AO2 SLP074 T03060094 51003

METARs OBSOLETI :
  • 250752Z AUTO 24009KT 10SM CLR 33/07 A2977 RMK AO2 SLP074 T03330067 404170233
  • 250652Z AUTO 24008KT 10SM CLR 33/07 A2977 RMK AO2 SLP073 T03330072

TAF KBLH
Valido dal 25 a 06 ore il 26 a 06 ore UTC


250520Z 2506/2606 25009KT P6SM FEW100
FM250800 VRB05KT P6SM SKC
FM252000 22012KT P6SM SKC
FM260300 24007KT P6SM SKC
FIR KZLA / America del Nord



MetMap, La meteo Aeronautica in un colpo d'occhio ! - Copyright ORBIFLY Dicembre 2007 - Disclaimer

ORBIFLY MET'MAP TEAM :

Programmazione e sviluppo : Alexandra Zaïnal
Concezione : Baudouin d'Aumeries
Aiuto per la programmazione : Marc-Olivier Méhu
Supporto tecnico e logistico : Manuel Goepfert
Aiuto per la traduzione : Arnaldo La Scala

Contatto : metmap@orbifly.com




FONTI E CREDITI :

   NOAA       Earth
Advisory